Time;durP1;ratioP1;P1;durP2;ratioP2;P2;SDS_P1;SDS_P2;PMS_P1;PMS_P2;Temp;Humidity;BMP_temperature;BMP_pressure;BME280_temperature;BME280_humidity;BME280_pressure;Samples;Min_cycle;Max_cycle;Signal;HPM_P1;HPM_P2
2024/03/07 00:00:18;;;;;;;36.27;20.60;;;;;;;;;;701632;28;945;-65
2024/03/07 00:00:39;;;;;;;36.47;20.70;;;;;;;;;;702607;28;964;-64
2024/03/07 00:01:00;;;;;;;34.38;20.98;;;;;;;;;;700515;28;1430;-64
2024/03/07 00:01:21;;;;;;;33.95;20.75;;;;;;;;;;701211;28;4491;-64
2024/03/07 00:01:41;;;;;;;32.97;19.85;;;;;;;;;;700857;28;2014;-63
2024/03/07 00:02:02;;;;;;;34.57;20.53;;;;;;;;;;702860;28;912;-63
2024/03/07 00:02:23;;;;;;;35.38;20.90;;;;;;;;;;701652;28;927;-63
2024/03/07 00:02:44;;;;;;;33.70;19.95;;;;;;;;;;700602;28;1069;-65
2024/03/07 00:03:04;;;;;;;33.58;19.90;;;;;;;;;;701780;28;932;-64
2024/03/07 00:03:25;;;;;;;36.37;20.50;;;;;;;;;;701240;28;1105;-63
2024/03/07 00:03:45;;;;;;;35.93;21.07;;;;;;;;;;701421;28;1189;-64
2024/03/07 00:04:05;;;;;;;36.73;21.10;;;;;;;;;;701528;28;4576;-63
2024/03/07 00:04:26;;;;;;;36.15;20.98;;;;;;;;;;702785;28;844;-64
2024/03/07 00:04:46;;;;;;;36.10;21.23;;;;;;;;;;700076;28;992;-64
2024/03/07 00:05:08;;;;;;;37.30;21.47;;;;;;;;;;702399;28;1359;-64
2024/03/07 00:05:28;;;;;;;36.40;21.70;;;;;;;;;;699876;28;1337;-64
2024/03/07 00:05:48;;;;;;;35.45;20.45;;;;;;;;;;701166;28;1064;-64
2024/03/07 00:06:08;;;;;;;35.10;20.33;;;;;;;;;;702493;28;872;-64
2024/03/07 00:06:29;;;;;;;35.87;20.77;;;;;;;;;;700848;28;770;-63
2024/03/07 00:06:49;;;;;;;37.20;21.00;;;;;;;;;;699464;28;998;-64
2024/03/07 00:07:09;;;;;;;37.63;20.95;;;;;;;;;;700723;28;4377;-64
2024/03/07 00:07:30;;;;;;;38.10;21.37;;;;;;;;;;701180;28;773;-65
2024/03/07 00:07:50;;;;;;;37.40;20.95;;;;;;;;;;701381;28;1027;-64
2024/03/07 00:08:11;;;;;;;34.47;20.07;;;;;;;;;;701332;28;782;-63
2024/03/07 00:08:31;;;;;;;34.50;20.52;;;;;;;;;;700966;28;1171;-64
2024/03/07 00:08:51;;;;;;;36.97;21.60;;;;;;;;;;700347;28;3676;-64
2024/03/07 00:09:12;;;;;;;36.10;20.53;;;;;;;;;;702687;28;5095;-64
2024/03/07 00:09:32;;;;;;;35.27;21.20;;;;;;;;;;702804;28;932;-65
2024/03/07 00:09:53;;;;;;;35.37;21.37;;;;;;;;;;701009;28;1465;-64
2024/03/07 00:10:15;;;;;;;34.33;20.92;;;;;;;;;;700549;28;4696;-65
2024/03/07 00:10:36;;;;;;;35.95;21.13;;;;;;;;;;702283;28;944;-64
2024/03/07 00:10:56;;;;;;;38.10;21.50;;;;;;;;;;701114;28;2473;-65
2024/03/07 00:11:17;;;;;;;35.28;20.70;;;;;;;;;;702318;28;924;-64
2024/03/07 00:11:38;;;;;;;34.08;20.52;;;;;;;;;;702508;28;977;-63
2024/03/07 00:11:59;;;;;;;33.72;20.30;;;;;;;;;;701485;28;1844;-64
2024/03/07 00:12:19;;;;;;;34.50;19.80;;;;;;;;;;702041;28;970;-64
2024/03/07 00:12:42;;;;;;;36.08;20.25;;;;;;;;;;702192;28;969;-64
2024/03/07 00:13:03;;;;;;;33.00;20.30;;;;;;;;;;701622;28;970;-63
2024/03/07 00:13:23;;;;;;;33.40;20.55;;;;;;;;;;701686;28;4347;-64
2024/03/07 00:13:43;;;;;;;34.30;20.33;;;;;;;;;;701105;28;1602;-63
2024/03/07 00:14:06;;;;;;;33.57;20.13;;;;;;;;;;703092;28;939;-65
2024/03/07 00:14:29;;;;;;;36.42;20.95;;;;;;;;;;702023;28;907;-65
2024/03/07 00:14:49;;;;;;;33.88;20.55;;;;;;;;;;699756;28;1710;-64
2024/03/07 00:15:13;;;;;;;35.03;20.43;;;;;;;;;;702079;28;1203;-63
2024/03/07 00:15:34;;;;;;;33.30;19.90;;;;;;;;;;701413;28;922;-64
2024/03/07 00:15:54;;;;;;;32.23;19.40;;;;;;;;;;700778;28;2320;-65
2024/03/07 00:16:15;;;;;;;33.50;19.70;;;;;;;;;;701920;27;4496;-67
2024/03/07 00:16:35;;;;;;;34.75;20.25;;;;;;;;;;701836;28;805;-64
2024/03/07 00:16:56;;;;;;;36.43;20.50;;;;;;;;;;700977;28;2205;-64
2024/03/07 00:17:17;;;;;;;37.92;21.27;;;;;;;;;;702457;28;912;-64
2024/03/07 00:17:38;;;;;;;37.58;20.80;;;;;;;;;;701710;28;983;-64
2024/03/07 00:18:00;;;;;;;34.97;19.57;;;;;;;;;;700962;28;2245;-63
2024/03/07 00:18:20;;;;;;;33.95;19.98;;;;;;;;;;702714;28;1141;-64
2024/03/07 00:18:40;;;;;;;32.33;19.13;;;;;;;;;;701487;28;1205;-64
2024/03/07 00:19:00;;;;;;;35.83;20.57;;;;;;;;;;701503;28;2238;-65
2024/03/07 00:19:21;;;;;;;34.77;20.00;;;;;;;;;;699475;28;4477;-64
2024/03/07 00:19:41;;;;;;;32.03;19.88;;;;;;;;;;695850;28;1884;-63
2024/03/07 00:20:04;;;;;;;32.83;20.83;;;;;;;;;;697314;28;1108;-64
2024/03/07 00:20:24;;;;;;;32.40;19.80;;;;;;;;;;697045;28;1227;-64
2024/03/07 00:20:44;;;;;;;32.67;20.27;;;;;;;;;;695642;28;2220;-64
2024/03/07 00:21:05;;;;;;;34.55;20.83;;;;;;;;;;696680;28;785;-66
2024/03/07 00:21:25;;;;;;;34.30;20.37;;;;;;;;;;699260;28;852;-64
2024/03/07 00:21:45;;;;;;;33.57;20.07;;;;;;;;;;697942;28;1955;-65
2024/03/07 00:22:06;;;;;;;31.73;19.97;;;;;;;;;;699006;28;4599;-64
2024/03/07 00:22:29;;;;;;;31.60;20.03;;;;;;;;;;699271;28;977;-64
2024/03/07 00:22:50;;;;;;;33.00;19.70;;;;;;;;;;697769;28;2273;-65
2024/03/07 00:23:10;;;;;;;33.83;19.48;;;;;;;;;;699289;28;1159;-65
2024/03/07 00:23:31;;;;;;;33.77;19.67;;;;;;;;;;699795;28;718;-64
2024/03/07 00:23:53;;;;;;;31.80;19.23;;;;;;;;;;697416;28;1124;-64
2024/03/07 00:24:14;;;;;;;34.72;19.80;;;;;;;;;;699234;28;979;-64
2024/03/07 00:24:35;;;;;;;34.25;19.80;;;;;;;;;;698465;28;803;-64
2024/03/07 00:24:56;;;;;;;33.95;19.58;;;;;;;;;;696049;28;1883;-66
2024/03/07 00:25:19;;;;;;;33.45;20.00;;;;;;;;;;697015;28;4403;-65
2024/03/07 00:25:39;;;;;;;32.53;19.67;;;;;;;;;;699045;28;971;-64
2024/03/07 00:26:00;;;;;;;32.83;19.60;;;;;;;;;;698754;28;1197;-63
2024/03/07 00:26:20;;;;;;;33.93;20.77;;;;;;;;;;698896;28;995;-65
2024/03/07 00:26:41;;;;;;;32.45;20.10;;;;;;;;;;698567;28;865;-64
2024/03/07 00:27:01;;;;;;;33.37;19.73;;;;;;;;;;698586;28;2449;-62
2024/03/07 00:27:22;;;;;;;33.08;19.73;;;;;;;;;;698470;28;876;-64
2024/03/07 00:27:45;;;;;;;33.63;19.50;;;;;;;;;;697976;28;1814;-64
2024/03/07 00:28:05;;;;;;;33.97;20.10;;;;;;;;;;698936;28;5173;-62
2024/03/07 00:28:29;;;;;;;32.27;19.97;;;;;;;;;;698270;28;769;-64
2024/03/07 00:28:49;;;;;;;33.92;20.30;;;;;;;;;;697410;28;946;-64
2024/03/07 00:29:10;;;;;;;35.05;20.40;;;;;;;;;;698632;28;888;-65
2024/03/07 00:29:30;;;;;;;35.13;20.15;;;;;;;;;;699095;28;964;-64
2024/03/07 00:29:53;;;;;;;32.87;20.00;;;;;;;;;;697344;28;1747;-64
2024/03/07 00:30:14;;;;;;;33.72;20.02;;;;;;;;;;698587;28;1049;-64
2024/03/07 00:30:34;;;;;;;32.47;19.58;;;;;;;;;;699028;28;1265;-63
2024/03/07 00:30:55;;;;;;;35.00;20.27;;;;;;;;;;698702;28;1719;-65
2024/03/07 00:31:16;;;;;;;34.45;19.92;;;;;;;;;;698013;28;4782;-65
2024/03/07 00:31:36;;;;;;;32.97;19.77;;;;;;;;;;699147;28;932;-62
2024/03/07 00:31:58;;;;;;;34.37;19.83;;;;;;;;;;698799;28;1917;-64
2024/03/07 00:32:19;;;;;;;32.80;19.58;;;;;;;;;;699895;28;1116;-64
2024/03/07 00:32:40;;;;;;;30.75;18.90;;;;;;;;;;700641;28;877;-65
2024/03/07 00:33:00;;;;;;;32.47;18.70;;;;;;;;;;697222;28;1477;-64
2024/03/07 00:33:21;;;;;;;31.50;18.60;;;;;;;;;;699509;28;936;-65
2024/03/07 00:33:42;;;;;;;31.63;18.55;;;;;;;;;;699208;28;984;-64
2024/03/07 00:34:03;;;;;;;33.97;20.13;;;;;;;;;;699177;28;1153;-64
2024/03/07 00:34:23;;;;;;;35.17;20.53;;;;;;;;;;698007;28;4333;-64
2024/03/07 00:34:43;;;;;;;32.97;19.83;;;;;;;;;;697549;28;1764;-64
2024/03/07 00:35:04;;;;;;;32.38;18.52;;;;;;;;;;699306;28;786;-62
2024/03/07 00:35:24;;;;;;;33.33;19.05;;;;;;;;;;698608;28;845;-64
2024/03/07 00:35:45;;;;;;;34.57;19.67;;;;;;;;;;698411;28;1506;-64
2024/03/07 00:36:05;;;;;;;35.43;19.97;;;;;;;;;;699732;28;771;-64
2024/03/07 00:36:25;;;;;;;34.10;20.13;;;;;;;;;;698378;28;966;-63
2024/03/07 00:36:46;;;;;;;33.00;20.07;;;;;;;;;;699137;28;2392;-65
2024/03/07 00:37:07;;;;;;;31.35;19.02;;;;;;;;;;697157;28;4515;-63
2024/03/07 00:37:27;;;;;;;32.40;19.35;;;;;;;;;;699571;28;1137;-64
2024/03/07 00:37:47;;;;;;;33.17;19.47;;;;;;;;;;699061;28;2589;-64
2024/03/07 00:38:07;;;;;;;32.97;20.40;;;;;;;;;;700546;28;928;-65
2024/03/07 00:38:28;;;;;;;30.43;19.10;;;;;;;;;;699890;28;805;-64
2024/03/07 00:38:48;;;;;;;32.90;19.63;;;;;;;;;;699363;28;1788;-63
2024/03/07 00:39:11;;;;;;;33.80;19.75;;;;;;;;;;699423;28;1411;-63
2024/03/07 00:39:33;;;;;;;32.42;19.40;;;;;;;;;;699156;28;1069;-63
2024/03/07 00:39:54;;;;;;;32.88;19.52;;;;;;;;;;698174;28;1449;-64
2024/03/07 00:40:14;;;;;;;33.70;20.10;;;;;;;;;;699212;28;4327;-65
2024/03/07 00:40:34;;;;;;;33.25;19.85;;;;;;;;;;699162;28;855;-64
2024/03/07 00:40:55;;;;;;;32.77;19.90;;;;;;;;;;698069;28;1955;-65
2024/03/07 00:41:17;;;;;;;31.63;18.70;;;;;;;;;;699378;28;927;-65
2024/03/07 00:41:38;;;;;;;32.67;19.02;;;;;;;;;;698575;28;1995;-64
2024/03/07 00:41:58;;;;;;;33.65;19.85;;;;;;;;;;698343;28;2030;-64
2024/03/07 00:42:19;;;;;;;32.17;19.17;;;;;;;;;;700041;28;1049;-65
2024/03/07 00:42:39;;;;;;;31.75;19.75;;;;;;;;;;699946;28;1193;-64
2024/03/07 00:42:59;;;;;;;31.93;19.37;;;;;;;;;;697942;28;1584;-65
2024/03/07 00:43:20;;;;;;;32.28;19.10;;;;;;;;;;698505;28;5282;-64
2024/03/07 00:43:41;;;;;;;34.37;19.50;;;;;;;;;;699237;28;857;-64
2024/03/07 00:44:01;;;;;;;33.50;20.27;;;;;;;;;;698825;28;1541;-64
2024/03/07 00:44:22;;;;;;;34.57;20.13;;;;;;;;;;697942;28;782;-64
2024/03/07 00:44:43;;;;;;;34.17;20.03;;;;;;;;;;698582;28;852;-64
2024/03/07 00:45:03;;;;;;;35.63;19.95;;;;;;;;;;699975;28;1010;-64
2024/03/07 00:45:23;;;;;;;36.13;19.85;;;;;;;;;;699731;28;789;-64
2024/03/07 00:45:44;;;;;;;34.37;20.20;;;;;;;;;;698429;28;1493;-64
2024/03/07 00:46:06;;;;;;;33.55;19.65;;;;;;;;;;700399;28;828;-64
2024/03/07 00:46:26;;;;;;;33.88;19.73;;;;;;;;;;702426;28;6110;-65
2024/03/07 00:46:46;;;;;;;34.30;19.83;;;;;;;;;;699581;28;2345;-64
2024/03/07 00:47:07;;;;;;;33.20;19.43;;;;;;;;;;700846;28;900;-65
2024/03/07 00:47:27;;;;;;;31.80;19.95;;;;;;;;;;700368;28;981;-65
2024/03/07 00:47:48;;;;;;;32.47;19.40;;;;;;;;;;699246;28;1833;-64
2024/03/07 00:48:09;;;;;;;33.75;19.33;;;;;;;;;;700748;28;931;-65
2024/03/07 00:48:29;;;;;;;32.63;19.60;;;;;;;;;;702368;28;979;-65
2024/03/07 00:48:49;;;;;;;33.10;19.53;;;;;;;;;;700111;28;1523;-64
2024/03/07 00:49:10;;;;;;;34.83;20.13;;;;;;;;;;702289;27;4349;-65
2024/03/07 00:49:30;;;;;;;35.17;20.87;;;;;;;;;;701731;28;948;-64
2024/03/07 00:49:50;;;;;;;35.35;21.00;;;;;;;;;;701157;28;1750;-64
2024/03/07 00:50:11;;;;;;;35.97;20.83;;;;;;;;;;703546;28;841;-64
2024/03/07 00:50:32;;;;;;;35.53;20.57;;;;;;;;;;701013;28;908;-64
2024/03/07 00:50:52;;;;;;;35.47;20.45;;;;;;;;;;699961;28;2286;-65
2024/03/07 00:51:12;;;;;;;35.53;20.48;;;;;;;;;;701585;28;825;-64
2024/03/07 00:51:33;;;;;;;33.97;19.90;;;;;;;;;;703279;28;947;-65
2024/03/07 00:51:54;;;;;;;34.47;19.93;;;;;;;;;;701374;28;1892;-64
2024/03/07 00:52:15;;;;;;;35.47;20.92;;;;;;;;;;700746;28;4337;-64
2024/03/07 00:52:35;;;;;;;35.88;20.17;;;;;;;;;;702742;28;884;-64
2024/03/07 00:52:55;;;;;;;35.90;20.13;;;;;;;;;;701388;28;1893;-65
2024/03/07 00:53:16;;;;;;;35.80;19.87;;;;;;;;;;703504;28;841;-64
2024/03/07 00:53:36;;;;;;;33.97;20.02;;;;;;;;;;699332;28;1168;-64
2024/03/07 00:53:57;;;;;;;33.97;19.80;;;;;;;;;;697667;28;1725;-65
2024/03/07 00:54:18;;;;;;;35.55;21.02;;;;;;;;;;698785;28;888;-64
2024/03/07 00:54:39;;;;;;;35.20;20.60;;;;;;;;;;701664;28;1080;-63
2024/03/07 00:54:59;;;;;;;34.58;19.60;;;;;;;;;;701674;28;2407;-65
2024/03/07 00:55:19;;;;;;;33.87;19.27;;;;;;;;;;700702;28;4540;-64
2024/03/07 00:55:39;;;;;;;34.27;19.37;;;;;;;;;;702443;28;939;-64
2024/03/07 00:56:00;;;;;;;32.85;19.25;;;;;;;;;;700010;28;1795;-64
2024/03/07 00:56:21;;;;;;;35.67;20.00;;;;;;;;;;701660;28;1242;-64
2024/03/07 00:56:41;;;;;;;36.70;20.67;;;;;;;;;;702089;28;1540;-64
2024/03/07 00:57:01;;;;;;;34.95;19.83;;;;;;;;;;701093;28;1869;-64
2024/03/07 00:57:22;;;;;;;34.20;19.67;;;;;;;;;;701984;28;860;-68
2024/03/07 00:57:42;;;;;;;34.73;20.23;;;;;;;;;;701769;28;829;-63
2024/03/07 00:58:02;;;;;;;33.42;19.83;;;;;;;;;;700366;28;1614;-64
2024/03/07 00:58:23;;;;;;;33.93;19.97;;;;;;;;;;701640;28;4461;-65
2024/03/07 00:58:43;;;;;;;34.85;20.10;;;;;;;;;;700900;28;1035;-62
2024/03/07 00:59:03;;;;;;;34.30;19.63;;;;;;;;;;702614;28;939;-64
2024/03/07 00:59:23;;;;;;;33.40;19.07;;;;;;;;;;701765;28;861;-64
2024/03/07 00:59:44;;;;;;;33.38;19.33;;;;;;;;;;700238;28;2224;-62
2024/03/07 01:00:05;;;;;;;34.23;19.87;;;;;;;;;;701909;28;785;-64
2024/03/07 01:00:25;;;;;;;35.63;20.58;;;;;;;;;;701206;28;908;-64
2024/03/07 01:00:45;;;;;;;35.30;19.90;;;;;;;;;;701779;28;1949;-64
2024/03/07 01:01:05;;;;;;;32.60;18.35;;;;;;;;;;700928;28;4371;-64
2024/03/07 01:01:26;;;;;;;32.87;18.93;;;;;;;;;;702277;28;1065;-64
2024/03/07 01:01:46;;;;;;;32.93;19.47;;;;;;;;;;701993;28;1988;-64
2024/03/07 01:02:07;;;;;;;32.90;19.33;;;;;;;;;;702451;28;1159;-64
2024/03/07 01:02:27;;;;;;;35.00;19.57;;;;;;;;;;702132;28;777;-64
2024/03/07 01:02:47;;;;;;;33.97;20.33;;;;;;;;;;700909;28;1738;-64
2024/03/07 01:03:10;;;;;;;33.13;19.77;;;;;;;;;;703094;28;1283;-64
2024/03/07 01:03:31;;;;;;;35.60;20.13;;;;;;;;;;703011;28;989;-65
2024/03/07 01:03:51;;;;;;;34.47;19.90;;;;;;;;;;701229;28;1777;-64
2024/03/07 01:04:11;;;;;;;31.73;19.30;;;;;;;;;;701135;27;4357;-63
2024/03/07 01:04:33;;;;;;;34.57;20.20;;;;;;;;;;702834;28;947;-64
2024/03/07 01:04:54;;;;;;;35.25;20.40;;;;;;;;;;701285;27;2733;-65
2024/03/07 01:05:14;;;;;;;33.17;19.73;;;;;;;;;;701937;28;4100;-64
2024/03/07 01:05:35;;;;;;;32.60;19.00;;;;;;;;;;703901;28;1078;-64
2024/03/07 01:05:55;;;;;;;34.65;19.55;;;;;;;;;;699759;28;1804;-64
2024/03/07 01:06:15;;;;;;;35.30;19.87;;;;;;;;;;701350;28;956;-64
2024/03/07 01:06:40;;;;;;;32.47;19.27;;;;;;;;;;700803;28;1359;-64
2024/03/07 01:07:01;;;;;;;31.40;19.20;;;;;;;;;;700498;28;1117;-64
2024/03/07 01:07:23;;;;;;;31.83;18.57;;;;;;;;;;701799;28;4409;-64
2024/03/07 01:07:45;;;;;;;32.30;18.40;;;;;;;;;;703111;28;818;-64
2024/03/07 01:08:06;;;;;;;35.25;19.45;;;;;;;;;;703678;28;834;-64
2024/03/07 01:08:27;;;;;;;35.30;20.30;;;;;;;;;;702742;28;1380;-63
2024/03/07 01:08:47;;;;;;;34.55;19.15;;;;;;;;;;700582;28;2360;-64
2024/03/07 01:09:14;;;;;;;35.60;19.43;;;;;;;;;;701873;28;939;-64
2024/03/07 01:09:35;;;;;;;34.78;19.50;;;;;;;;;;703427;28;995;-65
2024/03/07 01:09:55;;;;;;;34.80;19.48;;;;;;;;;;701915;28;2004;-63
2024/03/07 01:10:15;;;;;;;32.63;19.60;;;;;;;;;;702389;28;4380;-65
2024/03/07 01:10:36;;;;;;;34.85;19.75;;;;;;;;;;702121;28;828;-64
2024/03/07 01:10:56;;;;;;;34.60;19.97;;;;;;;;;;700984;28;950;-64
2024/03/07 01:11:16;;;;;;;32.27;19.27;;;;;;;;;;703342;28;868;-64
2024/03/07 01:11:37;;;;;;;33.38;19.73;;;;;;;;;;703474;28;912;-65
2024/03/07 01:11:59;;;;;;;33.03;19.50;;;;;;;;;;700917;28;1010;-65
2024/03/07 01:12:22;;;;;;;33.85;18.88;;;;;;;;;;702688;28;887;-66
2024/03/07 01:12:43;;;;;;;32.70;19.17;;;;;;;;;;703196;28;1015;-64
2024/03/07 01:13:05;;;;;;;34.40;18.65;;;;;;;;;;700649;28;1744;-64
2024/03/07 01:13:25;;;;;;;34.00;19.00;;;;;;;;;;698609;28;4733;-64
2024/03/07 01:13:46;;;;;;;36.10;19.10;;;;;;;;;;698119;28;1831;-64
2024/03/07 01:14:06;;;;;;;32.13;18.70;;;;;;;;;;699715;28;814;-63
2024/03/07 01:14:27;;;;;;;33.20;19.03;;;;;;;;;;699668;28;885;-64
2024/03/07 01:14:47;;;;;;;35.07;19.00;;;;;;;;;;695308;28;1477;-64
2024/03/07 01:15:08;;;;;;;34.40;19.40;;;;;;;;;;693261;28;1096;-64
2024/03/07 01:15:29;;;;;;;33.15;19.08;;;;;;;;;;695440;28;1041;-64
2024/03/07 01:15:49;;;;;;;33.80;19.08;;;;;;;;;;690922;28;2134;-64
2024/03/07 01:16:10;;;;;;;32.50;18.93;;;;;;;;;;691288;28;4324;-64
2024/03/07 01:16:30;;;;;;;33.03;18.83;;;;;;;;;;698055;28;896;-64
2024/03/07 01:16:51;;;;;;;34.20;19.45;;;;;;;;;;696635;28;2288;-64
2024/03/07 01:17:11;;;;;;;34.13;19.50;;;;;;;;;;699222;28;825;-65
2024/03/07 01:17:32;;;;;;;34.25;19.40;;;;;;;;;;700271;28;955;-64
2024/03/07 01:17:52;;;;;;;33.10;18.47;;;;;;;;;;698145;28;1448;-64
2024/03/07 01:18:13;;;;;;;34.27;19.07;;;;;;;;;;700762;28;916;-64
2024/03/07 01:18:33;;;;;;;33.37;19.57;;;;;;;;;;701296;28;1010;-65
2024/03/07 01:18:54;;;;;;;34.45;19.17;;;;;;;;;;699196;28;2426;-64
2024/03/07 01:19:14;;;;;;;34.73;19.57;;;;;;;;;;698768;28;4372;-65
2024/03/07 01:19:35;;;;;;;34.72;19.52;;;;;;;;;;699618;28;891;-64
2024/03/07 01:19:55;;;;;;;35.87;20.10;;;;;;;;;;699032;28;2687;-63
2024/03/07 01:20:15;;;;;;;38.28;20.48;;;;;;;;;;699703;28;1317;-64
2024/03/07 01:20:35;;;;;;;35.90;19.90;;;;;;;;;;700278;28;928;-64
2024/03/07 01:20:56;;;;;;;35.43;19.83;;;;;;;;;;699454;28;1882;-64
2024/03/07 01:21:16;;;;;;;35.08;20.10;;;;;;;;;;699294;28;657;-64
2024/03/07 01:21:36;;;;;;;34.90;19.90;;;;;;;;;;700423;28;805;-64
2024/03/07 01:21:56;;;;;;;36.43;20.37;;;;;;;;;;698789;28;2012;-64
2024/03/07 01:22:17;;;;;;;36.72;19.80;;;;;;;;;;698935;28;4226;-64
2024/03/07 01:22:37;;;;;;;36.43;19.90;;;;;;;;;;699912;28;1503;-64
2024/03/07 01:22:57;;;;;;;36.23;19.97;;;;;;;;;;698705;28;1547;-64
2024/03/07 01:23:17;;;;;;;38.23;20.90;;;;;;;;;;697441;28;1355;-64
2024/03/07 01:23:38;;;;;;;36.57;19.63;;;;;;;;;;698230;28;1026;-64
2024/03/07 01:23:59;;;;;;;35.60;19.87;;;;;;;;;;696787;28;1694;-65
2024/03/07 01:24:20;;;;;;;35.42;19.65;;;;;;;;;;698230;28;689;-66
2024/03/07 01:24:40;;;;;;;33.80;20.02;;;;;;;;;;698154;28;973;-64
2024/03/07 01:25:00;;;;;;;33.40;19.75;;;;;;;;;;697643;28;898;-64
2024/03/07 01:25:21;;;;;;;33.70;19.20;;;;;;;;;;694668;28;4489;-64
2024/03/07 01:25:41;;;;;;;34.10;20.25;;;;;;;;;;695785;28;702;-63
2024/03/07 01:26:02;;;;;;;35.43;20.07;;;;;;;;;;694159;28;1931;-64
2024/03/07 01:26:22;;;;;;;36.03;20.33;;;;;;;;;;695801;28;943;-64
2024/03/07 01:26:42;;;;;;;35.37;20.10;;;;;;;;;;698180;28;765;-64
2024/03/07 01:27:03;;;;;;;35.97;20.77;;;;;;;;;;696419;28;1522;-64
2024/03/07 01:27:24;;;;;;;36.97;20.45;;;;;;;;;;698647;28;908;-64
2024/03/07 01:27:44;;;;;;;37.70;20.67;;;;;;;;;;700176;28;936;-64
2024/03/07 01:28:06;;;;;;;35.80;19.70;;;;;;;;;;700054;28;4459;-62
2024/03/07 01:28:29;;;;;;;35.22;19.48;;;;;;;;;;699827;28;1013;-65
2024/03/07 01:28:50;;;;;;;34.35;19.48;;;;;;;;;;699386;28;1623;-64
2024/03/07 01:29:10;;;;;;;35.93;20.27;;;;;;;;;;700448;28;908;-65
2024/03/07 01:29:30;;;;;;;38.00;20.93;;;;;;;;;;700149;28;860;-63
2024/03/07 01:29:50;;;;;;;35.25;20.13;;;;;;;;;;698482;28;1710;-64
2024/03/07 01:30:11;;;;;;;34.83;19.63;;;;;;;;;;699236;28;809;-64
2024/03/07 01:30:31;;;;;;;37.38;21.67;;;;;;;;;;699498;28;1203;-63
2024/03/07 01:30:52;;;;;;;35.50;21.27;;;;;;;;;;698786;28;1822;-65
2024/03/07 01:31:12;;;;;;;36.45;20.23;;;;;;;;;;698927;28;4485;-64
2024/03/07 01:31:33;;;;;;;37.07;19.93;;;;;;;;;;698538;28;943;-64
2024/03/07 01:31:53;;;;;;;34.85;19.60;;;;;;;;;;699144;28;1819;-64
2024/03/07 01:32:13;;;;;;;33.50;18.90;;;;;;;;;;700036;28;1366;-65
2024/03/07 01:32:34;;;;;;;34.10;20.23;;;;;;;;;;699938;28;1036;-64
2024/03/07 01:32:54;;;;;;;34.67;19.40;;;;;;;;;;697994;28;1748;-65
2024/03/07 01:33:15;;;;;;;34.67;19.83;;;;;;;;;;698815;28;873;-64
2024/03/07 01:33:35;;;;;;;36.50;19.83;;;;;;;;;;700260;28;952;-64
2024/03/07 01:33:55;;;;;;;33.37;19.23;;;;;;;;;;698328;28;1568;-65
2024/03/07 01:34:16;;;;;;;32.83;18.90;;;;;;;;;;700082;28;4397;-64
2024/03/07 01:34:36;;;;;;;35.13;19.63;;;;;;;;;;701284;28;968;-65
2024/03/07 01:34:56;;;;;;;36.00;20.07;;;;;;;;;;699455;28;2011;-64
2024/03/07 01:35:17;;;;;;;33.93;19.37;;;;;;;;;;701264;28;927;-64
2024/03/07 01:35:37;;;;;;;34.67;19.63;;;;;;;;;;699896;28;1212;-64
2024/03/07 01:35:57;;;;;;;33.53;19.87;;;;;;;;;;698693;28;1789;-63
2024/03/07 01:36:18;;;;;;;34.95;20.23;;;;;;;;;;701470;28;896;-64
2024/03/07 01:36:39;;;;;;;34.58;20.02;;;;;;;;;;701090;28;804;-64
2024/03/07 01:36:59;;;;;;;36.10;20.10;;;;;;;;;;695544;28;1728;-64
2024/03/07 01:37:19;;;;;;;34.95;19.33;;;;;;;;;;697093;28;4522;-64
2024/03/07 01:37:40;;;;;;;34.37;19.17;;;;;;;;;;696264;28;922;-64
2024/03/07 01:38:03;;;;;;;35.10;19.45;;;;;;;;;;696534;28;1862;-64
2024/03/07 01:38:23;;;;;;;35.90;19.88;;;;;;;;;;697159;28;987;-64
2024/03/07 01:38:43;;;;;;;34.03;19.57;;;;;;;;;;698279;28;852;-63
2024/03/07 01:39:03;;;;;;;35.57;19.90;;;;;;;;;;699828;28;1769;-64
2024/03/07 01:39:23;;;;;;;34.83;19.27;;;;;;;;;;700105;28;889;-65
2024/03/07 01:39:44;;;;;;;34.23;19.00;;;;;;;;;;700818;28;1331;-64
2024/03/07 01:40:05;;;;;;;34.20;19.20;;;;;;;;;;697653;28;2106;-64
2024/03/07 01:40:25;;;;;;;35.22;19.60;;;;;;;;;;698474;28;4327;-64
2024/03/07 01:40:45;;;;;;;34.30;19.97;;;;;;;;;;700723;28;1273;-65
2024/03/07 01:41:05;;;;;;;34.13;20.23;;;;;;;;;;697999;28;2274;-64
2024/03/07 01:41:26;;;;;;;34.07;19.30;;;;;;;;;;698941;28;833;-65
2024/03/07 01:41:47;;;;;;;32.53;18.93;;;;;;;;;;698689;28;1902;-63
2024/03/07 01:42:09;;;;;;;34.38;18.70;;;;;;;;;;699682;28;864;-65
2024/03/07 01:42:29;;;;;;;34.83;19.73;;;;;;;;;;699970;28;931;-64
2024/03/07 01:42:50;;;;;;;33.03;19.30;;;;;;;;;;698611;28;1616;-64
2024/03/07 01:43:10;;;;;;;32.67;19.55;;;;;;;;;;699502;28;4353;-63
2024/03/07 01:43:31;;;;;;;33.37;19.20;;;;;;;;;;699630;28;813;-64
2024/03/07 01:43:51;;;;;;;33.67;19.63;;;;;;;;;;697799;28;2202;-62
2024/03/07 01:44:11;;;;;;;33.57;19.60;;;;;;;;;;699627;28;1180;-62
2024/03/07 01:44:32;;;;;;;34.77;19.53;;;;;;;;;;700416;28;778;-65
2024/03/07 01:44:52;;;;;;;35.57;19.03;;;;;;;;;;695779;28;1691;-65
2024/03/07 01:45:13;;;;;;;35.53;19.40;;;;;;;;;;699619;28;939;-65
2024/03/07 01:45:33;;;;;;;34.33;19.60;;;;;;;;;;699139;28;884;-63
2024/03/07 01:45:54;;;;;;;32.83;18.27;;;;;;;;;;698712;28;2022;-64
2024/03/07 01:46:14;;;;;;;34.17;18.95;;;;;;;;;;699983;28;4520;-64
2024/03/07 01:46:35;;;;;;;32.83;19.03;;;;;;;;;;700136;28;773;-64
2024/03/07 01:46:55;;;;;;;35.00;19.77;;;;;;;;;;698524;28;2393;-64
2024/03/07 01:47:15;;;;;;;35.83;19.75;;;;;;;;;;700694;28;840;-64
2024/03/07 01:47:36;;;;;;;35.87;19.53;;;;;;;;;;699306;28;1085;-63
2024/03/07 01:47:56;;;;;;;36.67;19.38;;;;;;;;;;698602;28;1915;-63
2024/03/07 01:48:24;;;;;;;37.00;19.30;;;;;;;;;;698922;28;908;-65
2024/03/07 01:48:44;;;;;;;36.53;19.42;;;;;;;;;;700684;28;869;-64
2024/03/07 01:49:07;;;;;;;35.33;19.37;;;;;;;;;;698578;28;2203;-64
2024/03/07 01:49:27;;;;;;;36.55;19.33;;;;;;;;;;699523;28;4572;-64
2024/03/07 01:49:48;;;;;;;35.03;19.47;;;;;;;;;;698900;28;1791;-64
2024/03/07 01:50:08;;;;;;;36.58;20.13;;;;;;;;;;700338;28;899;-64
2024/03/07 01:50:29;;;;;;;37.88;20.35;;;;;;;;;;700070;28;1026;-64
2024/03/07 01:50:49;;;;;;;36.63;19.80;;;;;;;;;;699185;28;1800;-65
2024/03/07 01:51:09;;;;;;;36.05;19.83;;;;;;;;;;699182;28;892;-64
2024/03/07 01:51:30;;;;;;;36.23;19.80;;;;;;;;;;700828;28;1250;-64
2024/03/07 01:51:50;;;;;;;35.33;20.17;;;;;;;;;;699410;28;1079;-65
2024/03/07 01:52:11;;;;;;;35.10;20.15;;;;;;;;;;699931;28;4399;-65
2024/03/07 01:52:31;;;;;;;36.37;19.60;;;;;;;;;;699376;28;881;-63
2024/03/07 01:52:55;;;;;;;36.93;20.63;;;;;;;;;;699019;28;1691;-64
2024/03/07 01:53:16;;;;;;;35.35;19.25;;;;;;;;;;700234;28;845;-64
2024/03/07 01:53:36;;;;;;;34.72;19.10;;;;;;;;;;699717;28;868;-65
2024/03/07 01:53:56;;;;;;;34.87;19.03;;;;;;;;;;699741;28;1835;-64
2024/03/07 01:54:17;;;;;;;34.03;19.30;;;;;;;;;;699665;28;816;-64
2024/03/07 01:54:38;;;;;;;36.30;19.73;;;;;;;;;;699601;28;1254;-63
2024/03/07 01:54:58;;;;;;;35.72;20.05;;;;;;;;;;699019;28;1773;-65
2024/03/07 01:55:19;;;;;;;34.17;19.20;;;;;;;;;;699131;28;5210;-64
2024/03/07 01:55:39;;;;;;;34.70;19.52;;;;;;;;;;697706;28;834;-62
2024/03/07 01:55:59;;;;;;;36.00;19.90;;;;;;;;;;695601;28;1920;-64
2024/03/07 01:56:20;;;;;;;34.30;19.25;;;;;;;;;;697413;28;1074;-64
2024/03/07 01:56:41;;;;;;;35.63;19.90;;;;;;;;;;700566;28;714;-63
2024/03/07 01:57:02;;;;;;;35.80;19.97;;;;;;;;;;697647;28;1889;-64
2024/03/07 01:57:22;;;;;;;36.85;20.73;;;;;;;;;;699626;28;839;-64
2024/03/07 01:57:43;;;;;;;36.92;20.30;;;;;;;;;;699219;28;793;-64
2024/03/07 01:58:04;;;;;;;36.27;19.77;;;;;;;;;;699473;28;2108;-64
2024/03/07 01:58:24;;;;;;;35.65;20.23;;;;;;;;;;700125;28;4469;-63
2024/03/07 01:58:48;;;;;;;35.97;19.60;;;;;;;;;;698855;28;904;-64
2024/03/07 01:59:09;;;;;;;34.30;19.33;;;;;;;;;;699322;28;1043;-64
2024/03/07 01:59:30;;;;;;;36.08;20.02;;;;;;;;;;700324;28;962;-64
2024/03/07 01:59:50;;;;;;;36.15;19.55;;;;;;;;;;698746;28;1577;-65
2024/03/07 02:00:11;;;;;;;34.63;19.40;;;;;;;;;;699220;28;974;-65
2024/03/07 02:00:31;;;;;;;33.65;19.02;;;;;;;;;;699592;28;809;-65
2024/03/07 02:00:51;;;;;;;35.97;19.80;;;;;;;;;;698114;28;2113;-64
2024/03/07 02:01:14;;;;;;;34.42;19.52;;;;;;;;;;699324;28;5225;-62
2024/03/07 02:01:36;;;;;;;33.45;19.42;;;;;;;;;;699266;28;3576;-65
2024/03/07 02:01:56;;;;;;;36.92;20.30;;;;;;;;;;699020;28;1978;-65
2024/03/07 02:02:20;;;;;;;35.73;20.03;;;;;;;;;;698187;28;904;-64
2024/03/07 02:02:40;;;;;;;34.25;19.38;;;;;;;;;;698284;28;1209;-65
2024/03/07 02:03:00;;;;;;;35.25;19.23;;;;;;;;;;695453;28;1442;-64
2024/03/07 02:03:21;;;;;;;34.87;19.37;;;;;;;;;;698592;28;1295;-63
2024/03/07 02:03:42;;;;;;;35.87;19.80;;;;;;;;;;698452;28;877;-64
2024/03/07 02:04:03;;;;;;;35.97;19.65;;;;;;;;;;698358;28;1690;-64
2024/03/07 02:04:23;;;;;;;35.63;19.87;;;;;;;;;;698945;28;4425;-65
2024/03/07 02:04:44;;;;;;;32.83;19.17;;;;;;;;;;700102;28;828;-65
2024/03/07 02:05:05;;;;;;;34.90;19.23;;;;;;;;;;699114;28;1597;-64